Airfield :
LOGIN :

Register | Disclaimer

   EN    FR    IT 

 










Legend :    VFR   Marginal VFR   IFR   Intensive IFR   Very Intensive IFR
Visi :
Ceiling :
>= 8 km
>= 3000ft
5 to 8 km
1000 to 3000 ft
1500m to 5 km
500 to 1000 ft
800 to 1500m
200 to 500 ft
< 800m
< 200 ft
Symbols :   Thunderstorms  Fog  Heavy snow  Heavy precipitations  Wind > 20 kt
SIGMETs :     Misc.  Thunderstorms  Icing  Turbulence  Mountain Waves  Volcanic Ashes






- Airport Elevation : 472 ft
- IATA code : GME


UMGG - Gomel

CURRENT METAR :
  • 041000Z 28009G13MPS 9999 BKN062CB BKN074 10/M10 Q1020 R28/D NOSIG

EXPIRED METARs :
  • 040930Z 29009G13MPS 9999 BKN063CB 08/M10 Q1020 R28/D NOSIG
  • 040900Z 28010G14MPS 9999 BKN059CB 08/M10 Q1020 R28/CLRD// NOSIG
  • 040830Z 26010G14MPS CAVOK 08/M04 Q1019 R28/D NOSIG
  • 040800Z 26009G13MPS 9999 BKN044 08/M04 Q1019 R28/D NOSIG
  • 040730Z 27008G12MPS 9999 SCT040 06/M04 Q1019 R28/D NOSIG

TAF TAF UMGG
Valid from the 04 at 06:00 until the 05 at 06:00 UTC


040452Z 0406/0506 27006G11MPS 9999 BKN015
TEMPO 0406/0416 28009G14MPS
TEMPO 0420/0506 29005MPS 2000 BR BKN005



MET'MAP, your aeronautical weather chart ! - Copyright ORBIFLY December 2007 - Disclaimer

ORBIFLY MET'MAP TEAM :

Programming & Development : Alexandra Zaïnal
Concept & original design : Baudouin d'Aumeries
Assistance for programming : Marc-Olivier Méhu
Technical & hardware support : Manuel Goepfert

Contact : metmap@orbifly.com




SOURCES & CREDITS :

   NOAA